createdAt,value
2022-10-27T00:00:51.947Z,30.00
2022-10-27T00:03:19.272Z,29.75
2022-10-27T00:05:47.743Z,29.60
2022-10-27T00:08:19.624Z,30.08
2022-10-27T00:10:56.148Z,30.92
2022-10-27T00:13:22.734Z,29.67
2022-10-27T00:16:04.506Z,30.02
2022-10-27T00:18:32.166Z,29.27
2022-10-27T00:21:07.048Z,30.55
2022-10-27T00:23:33.925Z,30.40
2022-10-27T00:26:01.513Z,30.65
2022-10-27T00:28:29.668Z,30.20
2022-10-27T00:31:08.570Z,30.55
2022-10-27T00:33:35.229Z,30.77
2022-10-27T00:36:10.576Z,30.23
2022-10-27T00:38:38.327Z,29.10
2022-10-27T00:41:06.930Z,29.88
2022-10-27T00:43:39.308Z,28.98
2022-10-27T00:46:20.451Z,29.40
2022-10-27T00:48:51.665Z,29.40
2022-10-27T00:51:19.698Z,28.90
2022-10-27T00:53:48.146Z,27.08
2022-10-27T00:56:15.221Z,27.83
2022-10-27T00:58:42.889Z,26.75
2022-10-27T01:01:09.562Z,27.98
2022-10-27T01:03:36.174Z,28.38
2022-10-27T01:06:03.181Z,27.58
2022-10-27T01:08:30.379Z,29.05
2022-10-27T01:10:57.165Z,30.23
2022-10-27T01:13:25.531Z,28.58
2022-10-27T01:16:17.062Z,27.48
2022-10-27T01:19:15.639Z,30.45
2022-10-27T01:22:11.809Z,28.15
2022-10-27T01:24:56.789Z,27.70
2022-10-27T01:28:02.011Z,29.60
2022-10-27T01:30:30.635Z,29.88
2022-10-27T01:33:25.549Z,26.80
2022-10-27T01:36:03.273Z,27.58
2022-10-27T01:38:40.483Z,26.90
2022-10-27T01:41:14.001Z,28.38
2022-10-27T01:43:40.964Z,26.55
2022-10-27T01:46:10.150Z,25.70
2022-10-27T01:48:38.201Z,25.40
2022-10-27T01:51:07.096Z,26.33
2022-10-27T01:53:40.137Z,24.80
2022-10-27T01:56:15.380Z,25.92
2022-10-27T01:58:57.214Z,25.03
2022-10-27T02:01:48.499Z,27.23
2022-10-27T02:04:40.867Z,28.00
2022-10-27T02:07:25.581Z,28.08
2022-10-27T02:10:01.075Z,29.83
2022-10-27T02:12:31.182Z,27.52
2022-10-27T02:15:02.056Z,29.00
2022-10-27T02:17:47.190Z,25.67
2022-10-27T02:20:20.716Z,28.17
2022-10-27T02:22:51.590Z,27.92
2022-10-27T02:25:24.095Z,29.02
2022-10-27T02:27:54.035Z,29.13
2022-10-27T02:30:20.856Z,27.88
2022-10-27T02:32:48.188Z,27.58
2022-10-27T02:35:17.435Z,26.27
2022-10-27T02:37:45.992Z,28.60
2022-10-27T02:40:12.694Z,26.85
2022-10-27T02:42:39.511Z,26.02
2022-10-27T02:45:06.681Z,28.52
2022-10-27T02:47:33.245Z,24.33
2022-10-27T02:49:59.898Z,24.83
2022-10-27T02:52:26.497Z,28.88
2022-10-27T02:54:53.073Z,27.38
2022-10-27T02:57:19.962Z,28.42
2022-10-27T02:59:49.571Z,25.48
2022-10-27T03:02:19.579Z,25.13
2022-10-27T03:04:46.286Z,25.70
2022-10-27T03:07:12.882Z,25.30
2022-10-27T03:09:39.579Z,27.17
2022-10-27T03:12:06.459Z,28.75
2022-10-27T03:14:33.013Z,28.90
2022-10-27T03:16:59.635Z,29.95
2022-10-27T03:19:26.281Z,30.23
2022-10-27T03:21:52.979Z,30.33
2022-10-27T03:24:19.614Z,28.27
2022-10-27T03:26:46.272Z,28.50
2022-10-27T03:29:14.203Z,29.10
2022-10-27T03:31:40.794Z,29.77
2022-10-27T03:34:07.648Z,29.05
2022-10-27T03:36:34.314Z,29.35
2022-10-27T03:39:00.950Z,28.25
2022-10-27T03:41:27.522Z,27.80
2022-10-27T03:43:54.278Z,26.77
2022-10-27T03:46:20.887Z,29.42
2022-10-27T03:48:47.462Z,27.30
2022-10-27T03:51:14.015Z,27.38
2022-10-27T03:53:40.605Z,26.35
2022-10-27T03:56:07.544Z,27.40
2022-10-27T03:58:34.247Z,39.05
2022-10-27T04:01:02.633Z,26.35
2022-10-27T04:03:29.285Z,25.73
2022-10-27T04:05:58.379Z,26.85
2022-10-27T04:08:25.008Z,27.00
2022-10-27T04:10:52.885Z,27.27
2022-10-27T04:13:19.503Z,26.98
2022-10-27T04:15:46.139Z,26.83
2022-10-27T04:18:12.775Z,27.98
2022-10-27T04:20:39.435Z,34.92
2022-10-27T04:23:06.036Z,28.58
2022-10-27T04:25:32.747Z,26.50
2022-10-27T04:28:07.602Z,26.30
2022-10-27T04:30:34.745Z,30.88
2022-10-27T04:33:01.552Z,30.67
2022-10-27T04:35:29.376Z,32.38
2022-10-27T04:37:56.800Z,26.92
2022-10-27T04:40:23.942Z,29.00
2022-10-27T04:42:50.706Z,26.90
2022-10-27T04:45:17.823Z,31.92
2022-10-27T04:47:45.292Z,28.63
2022-10-27T04:50:13.094Z,26.88
2022-10-27T04:52:43.481Z,24.70
2022-10-27T04:55:14.009Z,23.73
2022-10-27T04:57:40.592Z,25.98
2022-10-27T05:00:07.847Z,27.00
2022-10-27T05:02:37.761Z,25.38
2022-10-27T05:05:06.057Z,27.05
2022-10-27T05:07:32.650Z,27.83
2022-10-27T05:09:59.294Z,28.42
2022-10-27T05:12:25.912Z,23.48
2022-10-27T05:14:52.669Z,28.70
2022-10-27T05:17:19.761Z,26.13
2022-10-27T05:19:46.640Z,24.13
2022-10-27T05:22:13.173Z,23.60
2022-10-27T05:24:39.755Z,25.15
2022-10-27T05:27:06.500Z,25.65
2022-10-27T05:29:33.872Z,22.60
2022-10-27T05:32:01.858Z,75.32
2022-10-27T05:34:28.432Z,40.50
2022-10-27T05:36:55.065Z,38.55
2022-10-27T05:39:21.895Z,27.35
2022-10-27T05:41:48.909Z,28.48
2022-10-27T05:44:15.536Z,27.10
2022-10-27T05:46:42.131Z,29.58
2022-10-27T05:49:08.716Z,35.85
2022-10-27T05:51:35.372Z,34.28
2022-10-27T05:54:02.154Z,26.25
2022-10-27T05:56:28.737Z,24.95
2022-10-27T05:58:55.368Z,36.88
2022-10-27T06:01:23.146Z,24.02
2022-10-27T06:03:49.800Z,24.30
2022-10-27T06:06:16.355Z,21.95
2022-10-27T06:08:42.976Z,19.90
2022-10-27T06:11:09.591Z,22.30
2022-10-27T06:13:36.218Z,21.20
2022-10-27T06:16:02.831Z,21.48
2022-10-27T06:18:29.442Z,22.02
2022-10-27T06:20:56.141Z,22.08
2022-10-27T06:23:22.714Z,22.55
2022-10-27T06:25:49.386Z,23.52
2022-10-27T06:28:17.049Z,22.75
2022-10-27T06:30:45.288Z,20.98
2022-10-27T06:33:11.906Z,22.52
2022-10-27T06:35:38.739Z,22.92
2022-10-27T06:38:05.628Z,22.15
2022-10-27T06:40:32.340Z,23.83
2022-10-27T06:43:06.736Z,24.23
2022-10-27T06:45:37.329Z,20.98
2022-10-27T06:48:08.716Z,21.60
2022-10-27T06:50:36.792Z,23.08
2022-10-27T06:53:03.512Z,20.73
2022-10-27T06:55:31.642Z,20.42
2022-10-27T06:57:58.445Z,19.38
2022-10-27T07:00:25.961Z,19.20
2022-10-27T07:02:52.917Z,17.98
2022-10-27T07:05:19.783Z,17.00
2022-10-27T07:07:55.798Z,18.50
2022-10-27T07:10:22.761Z,18.40
2022-10-27T07:12:57.198Z,17.80
2022-10-27T07:15:25.285Z,17.75
2022-10-27T07:18:00.660Z,16.52
2022-10-27T07:20:30.280Z,15.93
2022-10-27T07:22:57.751Z,15.35
2022-10-27T07:25:24.618Z,14.70
2022-10-27T07:27:54.950Z,15.10
2022-10-27T07:30:24.358Z,14.45
2022-10-27T07:32:51.179Z,16.08
2022-10-27T07:35:17.857Z,14.15
2022-10-27T07:37:48.336Z,15.73
2022-10-27T07:40:19.022Z,15.35
2022-10-27T07:42:50.866Z,15.70
2022-10-27T07:45:19.568Z,14.80
2022-10-27T07:47:49.376Z,15.15
2022-10-27T07:50:17.220Z,13.77
2022-10-27T07:52:45.257Z,15.05
2022-10-27T07:55:15.491Z,14.45
2022-10-27T07:57:44.576Z,13.77
2022-10-27T08:00:13.962Z,14.57
2022-10-27T08:02:40.752Z,13.85
2022-10-27T08:05:08.309Z,13.85
2022-10-27T08:07:35.690Z,14.02
2022-10-27T08:10:03.383Z,14.02
2022-10-27T08:12:29.998Z,13.48
2022-10-27T08:14:56.933Z,13.18
2022-10-27T08:17:26.698Z,12.32
2022-10-27T08:19:53.413Z,11.82
2022-10-27T08:22:19.982Z,10.02
2022-10-27T08:24:46.650Z,10.27
2022-10-27T08:27:13.465Z,9.82
2022-10-27T08:29:40.060Z,8.82
2022-10-27T08:32:07.707Z,8.30
2022-10-27T08:34:34.297Z,8.07
2022-10-27T08:37:00.997Z,7.28
2022-10-27T08:39:27.583Z,6.68
2022-10-27T08:42:11.387Z,6.65
2022-10-27T08:45:00.747Z,6.30
2022-10-27T08:47:27.408Z,6.22
2022-10-27T08:50:05.926Z,6.70
2022-10-27T08:52:37.602Z,6.10
2022-10-27T08:55:09.498Z,6.97
2022-10-27T08:57:37.017Z,6.05
2022-10-27T09:00:07.001Z,7.10
2022-10-27T09:03:13.458Z,7.10
2022-10-27T09:06:12.711Z,7.50
2022-10-27T09:09:06.687Z,6.95
2022-10-27T09:11:51.959Z,7.45
2022-10-27T09:14:50.337Z,8.50
2022-10-27T09:17:22.165Z,8.18
2022-10-27T09:19:53.945Z,6.85
2022-10-27T09:22:22.482Z,6.45
2022-10-27T09:25:02.445Z,6.57
2022-10-27T09:27:29.138Z,5.97
2022-10-27T09:30:03.562Z,6.00
2022-10-27T09:32:33.157Z,5.50
2022-10-27T09:35:16.493Z,5.70
2022-10-27T09:40:16.635Z,5.25
2022-10-27T09:42:43.818Z,5.13
2022-10-27T09:45:32.775Z,5.10
2022-10-27T09:48:19.619Z,5.22
2022-10-27T09:50:58.646Z,5.10
2022-10-27T09:54:03.862Z,5.07
2022-10-27T09:56:33.593Z,5.18
2022-10-27T09:59:05.349Z,4.80
2022-10-27T10:01:43.728Z,5.13
2022-10-27T10:04:30.085Z,5.10
2022-10-27T10:07:00.071Z,5.07
2022-10-27T10:09:35.223Z,4.60
2022-10-27T10:12:24.651Z,5.07
2022-10-27T10:15:11.549Z,4.90
2022-10-27T10:17:41.250Z,4.50
2022-10-27T10:20:23.959Z,4.47
2022-10-27T10:22:51.791Z,4.95
2022-10-27T10:25:26.882Z,4.50
2022-10-27T10:27:59.759Z,4.55
2022-10-27T10:30:27.030Z,4.35
2022-10-27T10:32:57.973Z,4.68
2022-10-27T10:35:41.290Z,5.10
2022-10-27T10:38:42.812Z,5.40
2022-10-27T10:41:17.064Z,4.75
2022-10-27T10:43:44.659Z,4.70
2022-10-27T10:46:23.337Z,5.25
2022-10-27T10:48:53.975Z,5.00
2022-10-27T10:51:28.924Z,5.10
2022-10-27T10:54:01.374Z,5.70
2022-10-27T10:56:32.518Z,6.75
2022-10-27T10:59:16.994Z,5.32
2022-10-27T11:01:53.237Z,5.80
2022-10-27T11:04:27.652Z,6.13
2022-10-27T11:07:20.967Z,5.68
2022-10-27T11:10:03.589Z,5.55
2022-10-27T11:12:54.913Z,5.87
2022-10-27T11:15:43.830Z,5.97
2022-10-27T11:18:24.832Z,5.10
2022-10-27T11:20:59.262Z,5.65
2022-10-27T11:23:43.167Z,6.15
2022-10-27T11:26:11.431Z,5.80
2022-10-27T11:28:54.025Z,6.28
2022-10-27T11:31:46.452Z,5.93
2022-10-27T11:34:49.691Z,5.38
2022-10-27T11:37:57.616Z,5.50
2022-10-27T11:40:44.582Z,5.95
2022-10-27T11:43:19.262Z,6.00
2022-10-27T11:45:49.012Z,5.77
2022-10-27T11:48:26.482Z,6.43
2022-10-27T11:51:31.850Z,6.45
2022-10-27T11:53:58.730Z,5.68
2022-10-27T11:56:27.831Z,6.00
2022-10-27T11:59:11.421Z,6.20
2022-10-27T12:02:10.120Z,6.55
2022-10-27T12:04:53.984Z,6.20
2022-10-27T12:07:32.360Z,6.13
2022-10-27T12:10:07.547Z,6.35
2022-10-27T12:12:38.998Z,6.45
2022-10-27T12:15:28.814Z,5.68
2022-10-27T12:18:29.202Z,5.30
2022-10-27T12:21:05.807Z,6.57
2022-10-27T12:23:43.224Z,7.13
2022-10-27T12:26:32.804Z,6.45
2022-10-27T12:29:04.462Z,5.78
2022-10-27T12:31:38.593Z,6.47
2022-10-27T12:34:08.641Z,6.80
2022-10-27T12:36:59.393Z,6.35
2022-10-27T12:39:55.593Z,6.20
2022-10-27T12:42:37.129Z,6.60
2022-10-27T12:45:35.156Z,6.10
2022-10-27T12:48:59.921Z,6.38
2022-10-27T12:51:42.706Z,5.60
2022-10-27T12:54:30.737Z,6.47
2022-10-27T12:57:10.818Z,6.18
2022-10-27T13:00:12.318Z,5.75
2022-10-27T13:02:55.094Z,6.18
2022-10-27T13:05:59.499Z,5.78
2022-10-27T13:09:03.499Z,6.72
2022-10-27T13:11:47.327Z,6.80
2022-10-27T13:14:30.275Z,5.80
2022-10-27T13:17:13.833Z,6.18
2022-10-27T13:19:54.052Z,6.40
2022-10-27T13:22:44.086Z,6.15
2022-10-27T13:25:41.992Z,6.03
2022-10-27T13:28:18.663Z,6.53
2022-10-27T13:30:56.782Z,5.82
2022-10-27T13:33:33.850Z,6.30
2022-10-27T13:36:19.704Z,7.13
2022-10-27T13:38:48.350Z,7.18
2022-10-27T13:41:57.582Z,7.35
2022-10-27T13:44:42.066Z,6.80
2022-10-27T13:47:14.084Z,7.60
2022-10-27T13:49:40.639Z,7.05
2022-10-27T13:52:18.786Z,7.07
2022-10-27T13:55:03.889Z,7.55
2022-10-27T13:57:55.875Z,7.40
2022-10-27T14:00:41.594Z,7.30
2022-10-27T14:03:24.608Z,7.55
2022-10-27T14:05:51.829Z,7.60
2022-10-27T14:08:30.666Z,7.97
2022-10-27T14:11:01.284Z,7.35
2022-10-27T14:13:50.282Z,6.97
2022-10-27T14:16:28.098Z,7.72
2022-10-27T14:19:04.833Z,7.00
2022-10-27T14:21:35.402Z,7.55
2022-10-27T14:24:12.082Z,6.70
2022-10-27T14:26:38.860Z,8.77
2022-10-27T14:29:06.167Z,7.63
2022-10-27T14:31:33.603Z,7.15
2022-10-27T14:34:24.613Z,7.45
2022-10-27T14:36:54.569Z,7.65
2022-10-27T14:39:27.507Z,7.05
2022-10-27T14:41:58.455Z,7.80
2022-10-27T14:44:30.208Z,8.10
2022-10-27T14:47:04.398Z,8.23
2022-10-27T14:49:53.350Z,8.50
2022-10-27T14:52:34.279Z,11.27
2022-10-27T14:55:01.142Z,15.93
2022-10-27T14:57:27.778Z,14.23
2022-10-27T14:59:54.608Z,14.02
2022-10-27T15:02:23.214Z,11.60
2022-10-27T15:04:50.060Z,11.55
2022-10-27T15:07:20.269Z,9.32
2022-10-27T15:09:52.861Z,9.02
2022-10-27T15:12:26.015Z,8.77
2022-10-27T15:14:54.976Z,9.30
2022-10-27T15:17:31.235Z,10.77
2022-10-27T15:20:00.406Z,10.63
2022-10-27T15:22:28.252Z,11.05
2022-10-27T15:24:55.861Z,11.07
2022-10-27T15:27:22.780Z,15.15
2022-10-27T15:29:52.556Z,23.45
2022-10-27T15:32:39.163Z,12.93
2022-10-27T15:35:30.005Z,12.27
2022-10-27T15:37:58.214Z,12.27
2022-10-27T15:40:45.176Z,17.63
2022-10-27T15:43:28.330Z,21.27
2022-10-27T15:46:35.577Z,17.80
2022-10-27T15:54:39.392Z,14.07
2022-10-27T15:57:30.635Z,10.77
2022-10-27T16:00:12.438Z,10.60
2022-10-27T16:02:49.449Z,11.90
2022-10-27T16:05:31.138Z,11.27
2022-10-27T16:08:20.816Z,10.20
2022-10-27T16:10:52.941Z,17.55
2022-10-27T16:13:21.895Z,10.85
2022-10-27T16:15:52.079Z,11.77
2022-10-27T16:18:22.799Z,18.58
2022-10-27T16:20:49.416Z,20.52
2022-10-27T16:23:16.319Z,20.55
2022-10-27T16:25:45.690Z,25.00
2022-10-27T16:28:19.064Z,15.43
2022-10-27T16:30:46.135Z,10.45
2022-10-27T16:33:18.418Z,13.15
2022-10-27T16:35:45.108Z,9.95
2022-10-27T16:38:11.963Z,11.82
2022-10-27T16:40:47.478Z,10.93
2022-10-27T16:43:25.865Z,16.42
2022-10-27T16:45:52.579Z,16.13
2022-10-27T16:48:19.249Z,10.90
2022-10-27T16:50:46.801Z,12.80
2022-10-27T16:53:20.249Z,11.45
2022-10-27T16:55:59.049Z,11.07
2022-10-27T16:58:30.796Z,12.35
2022-10-27T17:01:04.030Z,13.15
2022-10-27T17:03:30.708Z,20.67
2022-10-27T17:05:59.176Z,35.85
2022-10-27T17:08:25.954Z,41.50
2022-10-27T17:10:52.577Z,26.67
2022-10-27T17:13:19.444Z,30.08
2022-10-27T17:15:46.058Z,24.13
2022-10-27T17:18:13.353Z,22.08
2022-10-27T17:20:43.094Z,22.35
2022-10-27T17:23:09.854Z,17.63
2022-10-27T17:25:36.529Z,21.65
2022-10-27T17:28:03.183Z,20.92
2022-10-27T17:30:29.815Z,26.23
2022-10-27T17:32:56.488Z,24.27
2022-10-27T17:35:23.137Z,24.63
2022-10-27T17:37:51.590Z,27.13
2022-10-27T17:40:18.359Z,23.17
2022-10-27T17:42:45.136Z,21.45
2022-10-27T17:45:11.906Z,19.05
2022-10-27T17:47:38.558Z,19.05
2022-10-27T17:50:08.965Z,22.08
2022-10-27T17:52:37.198Z,23.02
2022-10-27T17:55:04.708Z,22.60
2022-10-27T17:57:31.588Z,25.20
2022-10-27T17:59:58.195Z,29.15
2022-10-27T18:02:25.556Z,33.75
2022-10-27T18:04:54.768Z,32.15
2022-10-27T18:07:22.565Z,32.22
2022-10-27T18:09:49.181Z,32.20
2022-10-27T18:12:15.760Z,34.42
2022-10-27T18:14:43.229Z,30.88
2022-10-27T18:17:10.591Z,33.47
2022-10-27T18:19:37.307Z,32.38
2022-10-27T18:22:04.524Z,35.58
2022-10-27T18:24:31.093Z,31.65
2022-10-27T18:26:57.827Z,31.45
2022-10-27T18:29:26.538Z,39.10
2022-10-27T18:31:53.469Z,44.30
2022-10-27T18:34:20.369Z,41.38
2022-10-27T18:36:47.102Z,44.53
2022-10-27T18:39:24.006Z,43.75
2022-10-27T18:41:50.720Z,39.03
2022-10-27T18:44:19.675Z,36.58
2022-10-27T18:46:46.436Z,36.28
2022-10-27T18:49:16.049Z,38.65
2022-10-27T18:51:51.754Z,40.45
2022-10-27T18:54:18.412Z,37.88
2022-10-27T18:56:48.121Z,37.83
2022-10-27T18:59:14.876Z,37.90
2022-10-27T19:01:46.611Z,40.22
2022-10-27T19:04:15.860Z,38.67
2022-10-27T19:06:42.565Z,35.85
2022-10-27T19:09:13.436Z,35.90
2022-10-27T19:11:40.086Z,38.58
2022-10-27T19:14:06.928Z,38.45
2022-10-27T19:16:33.615Z,41.13
2022-10-27T19:19:00.984Z,43.45
2022-10-27T19:21:30.926Z,43.90
2022-10-27T19:24:02.657Z,40.63
2022-10-27T19:26:32.063Z,42.08
2022-10-27T19:28:59.064Z,38.33
2022-10-27T19:31:43.277Z,36.83
2022-10-27T19:34:10.467Z,38.50
2022-10-27T19:36:37.364Z,37.90
2022-10-27T19:39:08.657Z,37.00
2022-10-27T19:41:36.787Z,37.97
2022-10-27T19:44:07.753Z,36.50
2022-10-27T19:46:34.486Z,35.28
2022-10-27T19:49:02.688Z,37.05
2022-10-27T19:51:35.119Z,39.88
2022-10-27T19:54:04.593Z,44.72
2022-10-27T19:56:32.583Z,42.83
2022-10-27T19:59:03.189Z,46.78
2022-10-27T20:01:35.854Z,47.25
2022-10-27T20:04:04.016Z,47.13
2022-10-27T20:06:31.079Z,49.25
2022-10-27T20:08:59.105Z,57.45
2022-10-27T20:11:28.524Z,72.38
2022-10-27T20:14:00.386Z,56.95
2022-10-27T20:16:30.327Z,64.90
2022-10-27T20:19:13.714Z,60.35
2022-10-27T20:21:41.092Z,62.72
2022-10-27T20:24:14.553Z,53.75
2022-10-27T20:26:47.064Z,74.35
2022-10-27T20:29:14.418Z,50.10
2022-10-27T20:31:41.141Z,55.58
2022-10-27T20:34:11.930Z,74.82
2022-10-27T20:36:41.027Z,53.50
2022-10-27T20:39:10.896Z,68.13
2022-10-27T20:41:37.480Z,81.13
2022-10-27T20:44:04.492Z,72.90
2022-10-27T20:46:33.309Z,68.13
2022-10-27T20:49:00.868Z,59.47
2022-10-27T20:51:30.037Z,49.33
2022-10-27T20:53:57.018Z,48.78
2022-10-27T20:56:29.084Z,48.53
2022-10-27T20:58:56.330Z,42.75
2022-10-27T21:01:37.228Z,42.13
2022-10-27T21:04:08.017Z,38.65
2022-10-27T21:06:40.585Z,37.15
2022-10-27T21:09:10.707Z,39.22
2022-10-27T21:11:38.007Z,39.33
2022-10-27T21:14:06.362Z,39.72
2022-10-27T21:16:33.508Z,39.08
2022-10-27T21:19:03.001Z,38.13
2022-10-27T21:21:31.684Z,39.33
2022-10-27T21:24:02.604Z,36.13
2022-10-27T21:26:29.749Z,36.20
2022-10-27T21:28:58.182Z,35.53
2022-10-27T21:31:29.034Z,34.25
2022-10-27T21:33:56.727Z,35.05
2022-10-27T21:36:23.724Z,26.27
2022-10-27T21:38:50.888Z,24.30
2022-10-27T21:41:20.152Z,31.30
2022-10-27T21:43:49.764Z,31.63
2022-10-27T21:46:19.056Z,34.85
2022-10-27T21:48:47.383Z,31.90
2022-10-27T21:51:15.690Z,32.03
2022-10-27T21:53:42.541Z,32.33
2022-10-27T21:56:11.234Z,25.92
2022-10-27T21:58:39.769Z,26.58
2022-10-27T22:01:16.641Z,21.48
2022-10-27T22:03:45.604Z,19.23
2022-10-27T22:06:21.772Z,14.05
2022-10-27T22:11:23.174Z,26.13
2022-10-27T22:13:50.465Z,30.38
2022-10-27T22:16:19.688Z,30.50
2022-10-27T22:18:52.826Z,27.67
2022-10-27T22:21:19.720Z,27.15
2022-10-27T22:23:46.303Z,29.35
2022-10-27T22:26:15.798Z,23.77
2022-10-27T22:28:52.801Z,24.40
2022-10-27T22:31:24.993Z,26.80
2022-10-27T22:33:51.805Z,28.50
2022-10-27T22:36:21.693Z,25.50
2022-10-27T22:38:53.400Z,26.75
2022-10-27T22:41:20.027Z,28.33
2022-10-27T22:43:49.112Z,28.85
2022-10-27T22:46:18.889Z,29.55
2022-10-27T22:48:45.570Z,28.60
2022-10-27T22:51:14.412Z,27.90
2022-10-27T22:53:42.181Z,29.08
2022-10-27T22:56:14.735Z,29.52
2022-10-27T22:58:41.956Z,27.45
2022-10-27T23:01:15.072Z,29.10
2022-10-27T23:03:41.990Z,26.83
2022-10-27T23:06:09.075Z,29.73
2022-10-27T23:08:35.936Z,30.73
2022-10-27T23:11:05.327Z,29.20
2022-10-27T23:13:34.830Z,31.10
2022-10-27T23:16:07.426Z,30.58
2022-10-27T23:18:35.266Z,29.95
2022-10-27T23:21:03.070Z,29.35
2022-10-27T23:23:31.136Z,29.80
2022-10-27T23:25:58.310Z,28.23
2022-10-27T23:28:28.182Z,29.00
2022-10-27T23:30:54.976Z,24.90
2022-10-27T23:33:21.729Z,25.80
2022-10-27T23:35:57.203Z,27.50
2022-10-27T23:41:11.064Z,25.88
2022-10-27T23:43:37.793Z,26.83
2022-10-27T23:46:08.153Z,26.95
2022-10-27T23:48:36.532Z,25.48
2022-10-27T23:51:03.850Z,26.08
2022-10-27T23:53:30.955Z,27.90
2022-10-27T23:56:02.911Z,26.80
2022-10-27T23:58:32.452Z,28.42
